sensor_id;sensor_type;location;lat;lon;timestamp;temperature;humidity
30694;DHT22;17446;48.022;-1.740;2022-07-29T00:01:16;21.10;85.00
30694;DHT22;17446;48.022;-1.740;2022-07-29T00:03:42;21.00;85.30
30694;DHT22;17446;48.022;-1.740;2022-07-29T00:06:08;21.10;85.70
30694;DHT22;17446;48.022;-1.740;2022-07-29T00:08:33;21.00;85.80
30694;DHT22;17446;48.022;-1.740;2022-07-29T00:10:59;21.00;86.80
30694;DHT22;17446;48.022;-1.740;2022-07-29T00:13:25;21.00;86.30
30694;DHT22;17446;48.022;-1.740;2022-07-29T00:15:50;21.00;86.60
30694;DHT22;17446;48.022;-1.740;2022-07-29T00:18:16;21.00;86.70
30694;DHT22;17446;48.022;-1.740;2022-07-29T00:20:43;21.10;86.90
30694;DHT22;17446;48.022;-1.740;2022-07-29T00:23:08;21.00;86.90
30694;DHT22;17446;48.022;-1.740;2022-07-29T00:25:34;21.00;87.00
30694;DHT22;17446;48.022;-1.740;2022-07-29T00:28:00;21.00;87.30
30694;DHT22;17446;48.022;-1.740;2022-07-29T00:30:25;21.10;87.60
30694;DHT22;17446;48.022;-1.740;2022-07-29T00:32:51;21.00;87.80
30694;DHT22;17446;48.022;-1.740;2022-07-29T00:35:17;21.00;88.00
30694;DHT22;17446;48.022;-1.740;2022-07-29T00:38:01;20.90;88.20
30694;DHT22;17446;48.022;-1.740;2022-07-29T00:40:26;20.90;88.70
30694;DHT22;17446;48.022;-1.740;2022-07-29T00:42:52;20.90;89.00
30694;DHT22;17446;48.022;-1.740;2022-07-29T00:45:18;20.80;89.20
30694;DHT22;17446;48.022;-1.740;2022-07-29T00:47:44;20.80;89.50
30694;DHT22;17446;48.022;-1.740;2022-07-29T00:50:12;20.70;89.70
30694;DHT22;17446;48.022;-1.740;2022-07-29T00:52:39;20.80;90.00
30694;DHT22;17446;48.022;-1.740;2022-07-29T00:55:07;20.80;90.20
30694;DHT22;17446;48.022;-1.740;2022-07-29T00:57:33;20.80;90.30
30694;DHT22;17446;48.022;-1.740;2022-07-29T00:59:59;20.80;90.30
30694;DHT22;17446;48.022;-1.740;2022-07-29T01:02:25;20.80;90.40
30694;DHT22;17446;48.022;-1.740;2022-07-29T01:04:51;20.70;90.40
30694;DHT22;17446;48.022;-1.740;2022-07-29T01:07:17;20.70;90.50
30694;DHT22;17446;48.022;-1.740;2022-07-29T01:09:44;20.70;90.60
30694;DHT22;17446;48.022;-1.740;2022-07-29T01:12:12;20.70;90.70
30694;DHT22;17446;48.022;-1.740;2022-07-29T01:14:39;20.70;91.00
30694;DHT22;17446;48.022;-1.740;2022-07-29T01:17:27;20.80;90.70
30694;DHT22;17446;48.022;-1.740;2022-07-29T01:20:17;20.80;90.70
30694;DHT22;17446;48.022;-1.740;2022-07-29T01:31:06;20.70;91.00
30694;DHT22;17446;48.022;-1.740;2022-07-29T01:33:38;20.70;91.10
30694;DHT22;17446;48.022;-1.740;2022-07-29T01:36:37;20.70;91.10
30694;DHT22;17446;48.022;-1.740;2022-07-29T01:39:12;20.70;91.20
30694;DHT22;17446;48.022;-1.740;2022-07-29T01:41:52;20.60;91.20
30694;DHT22;17446;48.022;-1.740;2022-07-29T01:44:27;20.70;91.30
30694;DHT22;17446;48.022;-1.740;2022-07-29T01:46:58;20.70;91.30
30694;DHT22;17446;48.022;-1.740;2022-07-29T01:49:33;20.70;91.20
30694;DHT22;17446;48.022;-1.740;2022-07-29T01:52:05;20.80;91.20
30694;DHT22;17446;48.022;-1.740;2022-07-29T01:54:39;20.80;91.20
30694;DHT22;17446;48.022;-1.740;2022-07-29T01:57:14;20.80;91.20
30694;DHT22;17446;48.022;-1.740;2022-07-29T01:59:41;20.80;91.20
30694;DHT22;17446;48.022;-1.740;2022-07-29T02:02:08;20.70;91.20
30694;DHT22;17446;48.022;-1.740;2022-07-29T02:04:36;20.70;91.20
30694;DHT22;17446;48.022;-1.740;2022-07-29T02:07:05;20.70;91.40
30694;DHT22;17446;48.022;-1.740;2022-07-29T02:09:34;20.60;91.50
30694;DHT22;17446;48.022;-1.740;2022-07-29T02:12:02;20.60;91.60
30694;DHT22;17446;48.022;-1.740;2022-07-29T02:14:33;20.60;91.70
30694;DHT22;17446;48.022;-1.740;2022-07-29T02:17:00;20.60;91.70
30694;DHT22;17446;48.022;-1.740;2022-07-29T02:19:27;20.60;91.80
30694;DHT22;17446;48.022;-1.740;2022-07-29T02:21:56;20.50;91.90
30694;DHT22;17446;48.022;-1.740;2022-07-29T02:24:23;20.50;92.00
30694;DHT22;17446;48.022;-1.740;2022-07-29T02:26:51;20.50;92.10
30694;DHT22;17446;48.022;-1.740;2022-07-29T02:29:20;20.50;92.20
30694;DHT22;17446;48.022;-1.740;2022-07-29T02:31:48;20.50;92.30
30694;DHT22;17446;48.022;-1.740;2022-07-29T02:34:15;20.50;92.30
30694;DHT22;17446;48.022;-1.740;2022-07-29T02:36:43;20.50;92.40
30694;DHT22;17446;48.022;-1.740;2022-07-29T02:39:11;20.50;92.40
30694;DHT22;17446;48.022;-1.740;2022-07-29T02:44:11;20.50;92.30
30694;DHT22;17446;48.022;-1.740;2022-07-29T02:47:25;20.60;92.40
30694;DHT22;17446;48.022;-1.740;2022-07-29T02:49:48;20.60;92.30
30694;DHT22;17446;48.022;-1.740;2022-07-29T02:52:31;20.60;92.20
30694;DHT22;17446;48.022;-1.740;2022-07-29T02:55:05;20.60;92.20
30694;DHT22;17446;48.022;-1.740;2022-07-29T02:57:43;20.60;92.20
30694;DHT22;17446;48.022;-1.740;2022-07-29T03:00:10;20.70;92.10
30694;DHT22;17446;48.022;-1.740;2022-07-29T03:02:45;20.70;92.00
30694;DHT22;17446;48.022;-1.740;2022-07-29T03:05:18;20.70;92.00
30694;DHT22;17446;48.022;-1.740;2022-07-29T03:07:54;20.60;92.00
30694;DHT22;17446;48.022;-1.740;2022-07-29T03:10:21;20.60;92.10
30694;DHT22;17446;48.022;-1.740;2022-07-29T03:12:47;20.70;92.00
30694;DHT22;17446;48.022;-1.740;2022-07-29T03:15:14;20.60;92.00
30694;DHT22;17446;48.022;-1.740;2022-07-29T03:17:40;20.60;92.00
30694;DHT22;17446;48.022;-1.740;2022-07-29T03:20:07;20.60;92.10
30694;DHT22;17446;48.022;-1.740;2022-07-29T03:22:38;20.60;92.20
30694;DHT22;17446;48.022;-1.740;2022-07-29T03:25:09;20.60;92.30
30694;DHT22;17446;48.022;-1.740;2022-07-29T03:27:35;20.60;92.20
30694;DHT22;17446;48.022;-1.740;2022-07-29T03:30:00;20.60;92.30
30694;DHT22;17446;48.022;-1.740;2022-07-29T03:32:26;20.60;92.20
30694;DHT22;17446;48.022;-1.740;2022-07-29T03:34:52;20.60;92.20
30694;DHT22;17446;48.022;-1.740;2022-07-29T03:37:17;20.60;92.10
30694;DHT22;17446;48.022;-1.740;2022-07-29T03:39:44;20.60;92.10
30694;DHT22;17446;48.022;-1.740;2022-07-29T03:42:13;20.60;92.00
30694;DHT22;17446;48.022;-1.740;2022-07-29T03:44:42;20.60;92.00
30694;DHT22;17446;48.022;-1.740;2022-07-29T03:47:09;20.60;92.00
30694;DHT22;17446;48.022;-1.740;2022-07-29T03:49:36;20.60;91.90
30694;DHT22;17446;48.022;-1.740;2022-07-29T03:52:04;20.60;92.00
30694;DHT22;17446;48.022;-1.740;2022-07-29T03:54:30;20.50;91.90
30694;DHT22;17446;48.022;-1.740;2022-07-29T03:56:57;20.50;91.90
30694;DHT22;17446;48.022;-1.740;2022-07-29T03:59:24;20.50;92.00
30694;DHT22;17446;48.022;-1.740;2022-07-29T04:01:53;20.50;92.10
30694;DHT22;17446;48.022;-1.740;2022-07-29T04:04:21;20.40;92.10
30694;DHT22;17446;48.022;-1.740;2022-07-29T04:06:46;20.40;92.20
30694;DHT22;17446;48.022;-1.740;2022-07-29T04:09:12;20.40;92.20
30694;DHT22;17446;48.022;-1.740;2022-07-29T04:11:40;20.40;92.30
30694;DHT22;17446;48.022;-1.740;2022-07-29T04:14:05;20.40;92.30
30694;DHT22;17446;48.022;-1.740;2022-07-29T04:16:31;20.40;92.30
30694;DHT22;17446;48.022;-1.740;2022-07-29T04:18:57;20.40;92.40
30694;DHT22;17446;48.022;-1.740;2022-07-29T04:21:23;20.40;92.40
30694;DHT22;17446;48.022;-1.740;2022-07-29T04:23:49;20.30;92.40
30694;DHT22;17446;48.022;-1.740;2022-07-29T04:26:18;20.30;92.40
30694;DHT22;17446;48.022;-1.740;2022-07-29T04:28:44;20.30;92.40
30694;DHT22;17446;48.022;-1.740;2022-07-29T04:31:10;20.40;92.50
30694;DHT22;17446;48.022;-1.740;2022-07-29T04:33:36;20.40;92.50
30694;DHT22;17446;48.022;-1.740;2022-07-29T04:36:02;20.40;92.40
30694;DHT22;17446;48.022;-1.740;2022-07-29T04:38:27;20.40;92.40
30694;DHT22;17446;48.022;-1.740;2022-07-29T04:40:53;20.40;92.40
30694;DHT22;17446;48.022;-1.740;2022-07-29T04:43:19;20.40;92.30
30694;DHT22;17446;48.022;-1.740;2022-07-29T04:45:44;20.40;92.40
30694;DHT22;17446;48.022;-1.740;2022-07-29T04:48:10;20.40;92.40
30694;DHT22;17446;48.022;-1.740;2022-07-29T04:50:39;20.40;92.40
30694;DHT22;17446;48.022;-1.740;2022-07-29T04:53:05;20.40;92.30
30694;DHT22;17446;48.022;-1.740;2022-07-29T04:55:31;20.40;92.40
30694;DHT22;17446;48.022;-1.740;2022-07-29T04:57:56;20.40;92.30
30694;DHT22;17446;48.022;-1.740;2022-07-29T05:00:22;20.50;92.40
30694;DHT22;17446;48.022;-1.740;2022-07-29T05:02:49;20.50;92.30
30694;DHT22;17446;48.022;-1.740;2022-07-29T05:05:14;20.50;92.20
30694;DHT22;17446;48.022;-1.740;2022-07-29T05:07:40;20.40;92.20
30694;DHT22;17446;48.022;-1.740;2022-07-29T05:10:07;20.50;92.10
30694;DHT22;17446;48.022;-1.740;2022-07-29T05:12:32;20.50;92.50
30694;DHT22;17446;48.022;-1.740;2022-07-29T05:14:59;20.50;92.20
30694;DHT22;17446;48.022;-1.740;2022-07-29T05:17:25;20.60;92.10
30694;DHT22;17446;48.022;-1.740;2022-07-29T05:19:50;20.60;92.00
30694;DHT22;17446;48.022;-1.740;2022-07-29T05:22:18;20.70;91.90
30694;DHT22;17446;48.022;-1.740;2022-07-29T05:24:44;20.60;91.80
30694;DHT22;17446;48.022;-1.740;2022-07-29T05:27:09;20.70;91.80
30694;DHT22;17446;48.022;-1.740;2022-07-29T05:29:35;20.70;91.70
30694;DHT22;17446;48.022;-1.740;2022-07-29T05:32:02;20.70;91.70
30694;DHT22;17446;48.022;-1.740;2022-07-29T05:34:27;20.80;91.60
30694;DHT22;17446;48.022;-1.740;2022-07-29T05:36:53;20.80;91.60
30694;DHT22;17446;48.022;-1.740;2022-07-29T05:39:19;20.80;91.40
30694;DHT22;17446;48.022;-1.740;2022-07-29T05:41:44;20.80;91.30
30694;DHT22;17446;48.022;-1.740;2022-07-29T05:44:10;20.80;91.40
30694;DHT22;17446;48.022;-1.740;2022-07-29T05:46:36;20.80;91.30
30694;DHT22;17446;48.022;-1.740;2022-07-29T05:49:02;20.90;91.30
30694;DHT22;17446;48.022;-1.740;2022-07-29T05:51:28;20.90;91.20
30694;DHT22;17446;48.022;-1.740;2022-07-29T05:53:53;21.00;91.20
30694;DHT22;17446;48.022;-1.740;2022-07-29T05:56:19;21.00;91.10
30694;DHT22;17446;48.022;-1.740;2022-07-29T05:58:45;21.10;90.90
30694;DHT22;17446;48.022;-1.740;2022-07-29T06:01:11;21.10;90.80
30694;DHT22;17446;48.022;-1.740;2022-07-29T06:03:36;21.10;90.80
30694;DHT22;17446;48.022;-1.740;2022-07-29T06:06:03;21.20;90.70
30694;DHT22;17446;48.022;-1.740;2022-07-29T06:08:29;21.20;90.60
30694;DHT22;17446;48.022;-1.740;2022-07-29T06:10:55;21.30;90.60
30694;DHT22;17446;48.022;-1.740;2022-07-29T06:13:20;21.30;90.50
30694;DHT22;17446;48.022;-1.740;2022-07-29T06:15:46;21.40;90.30
30694;DHT22;17446;48.022;-1.740;2022-07-29T06:18:12;21.40;90.20
30694;DHT22;17446;48.022;-1.740;2022-07-29T06:20:38;21.40;90.10
30694;DHT22;17446;48.022;-1.740;2022-07-29T06:23:04;21.50;90.00
30694;DHT22;17446;48.022;-1.740;2022-07-29T06:25:30;21.60;90.00
30694;DHT22;17446;48.022;-1.740;2022-07-29T06:27:56;21.60;89.80
30694;DHT22;17446;48.022;-1.740;2022-07-29T06:30:22;21.70;89.60
30694;DHT22;17446;48.022;-1.740;2022-07-29T06:32:48;21.80;89.40
30694;DHT22;17446;48.022;-1.740;2022-07-29T06:35:14;21.90;88.70
30694;DHT22;17446;48.022;-1.740;2022-07-29T06:37:40;22.00;88.10
30694;DHT22;17446;48.022;-1.740;2022-07-29T06:40:06;22.00;87.50
30694;DHT22;17446;48.022;-1.740;2022-07-29T06:42:51;22.00;87.00
30694;DHT22;17446;48.022;-1.740;2022-07-29T06:45:16;22.10;87.20
30694;DHT22;17446;48.022;-1.740;2022-07-29T06:47:42;22.10;87.00
30694;DHT22;17446;48.022;-1.740;2022-07-29T06:50:08;22.20;86.70
30694;DHT22;17446;48.022;-1.740;2022-07-29T06:52:38;22.20;86.70
30694;DHT22;17446;48.022;-1.740;2022-07-29T06:55:04;22.30;86.40
30694;DHT22;17446;48.022;-1.740;2022-07-29T06:57:30;22.40;85.70
30694;DHT22;17446;48.022;-1.740;2022-07-29T06:59:58;22.50;85.30
30694;DHT22;17446;48.022;-1.740;2022-07-29T07:02:24;22.60;84.70
30694;DHT22;17446;48.022;-1.740;2022-07-29T07:04:50;22.70;84.10
30694;DHT22;17446;48.022;-1.740;2022-07-29T07:07:15;22.90;84.00
30694;DHT22;17446;48.022;-1.740;2022-07-29T07:09:41;23.00;82.80
30694;DHT22;17446;48.022;-1.740;2022-07-29T07:12:07;23.20;82.10
30694;DHT22;17446;48.022;-1.740;2022-07-29T07:14:32;23.20;81.70
30694;DHT22;17446;48.022;-1.740;2022-07-29T07:16:58;23.40;79.80
30694;DHT22;17446;48.022;-1.740;2022-07-29T07:19:26;23.50;78.40
30694;DHT22;17446;48.022;-1.740;2022-07-29T07:21:52;23.60;78.30
30694;DHT22;17446;48.022;-1.740;2022-07-29T07:24:18;23.70;77.70
30694;DHT22;17446;48.022;-1.740;2022-07-29T07:26:44;23.80;77.40
30694;DHT22;17446;48.022;-1.740;2022-07-29T07:29:10;24.00;76.40
30694;DHT22;17446;48.022;-1.740;2022-07-29T07:31:37;24.00;75.10
30694;DHT22;17446;48.022;-1.740;2022-07-29T07:34:03;24.10;75.10
30694;DHT22;17446;48.022;-1.740;2022-07-29T07:36:29;24.20;74.10
30694;DHT22;17446;48.022;-1.740;2022-07-29T07:38:55;24.20;72.90
30694;DHT22;17446;48.022;-1.740;2022-07-29T07:41:21;24.20;72.90
30694;DHT22;17446;48.022;-1.740;2022-07-29T07:43:47;24.30;71.90
30694;DHT22;17446;48.022;-1.740;2022-07-29T07:46:12;24.40;71.90
30694;DHT22;17446;48.022;-1.740;2022-07-29T07:48:38;24.40;71.90
30694;DHT22;17446;48.022;-1.740;2022-07-29T07:51:03;24.50;71.70
30694;DHT22;17446;48.022;-1.740;2022-07-29T07:53:29;24.60;70.40
30694;DHT22;17446;48.022;-1.740;2022-07-29T07:55:55;24.60;69.50
30694;DHT22;17446;48.022;-1.740;2022-07-29T07:58:21;24.60;68.90
30694;DHT22;17446;48.022;-1.740;2022-07-29T08:00:47;24.60;68.70
30694;DHT22;17446;48.022;-1.740;2022-07-29T08:03:13;24.70;69.10
30694;DHT22;17446;48.022;-1.740;2022-07-29T08:05:40;24.90;69.20
30694;DHT22;17446;48.022;-1.740;2022-07-29T08:08:06;25.10;69.20
30694;DHT22;17446;48.022;-1.740;2022-07-29T08:10:32;25.20;68.00
30694;DHT22;17446;48.022;-1.740;2022-07-29T08:13:17;25.40;67.20
30694;DHT22;17446;48.022;-1.740;2022-07-29T08:15:43;25.40;67.00
30694;DHT22;17446;48.022;-1.740;2022-07-29T08:18:10;25.50;67.20
30694;DHT22;17446;48.022;-1.740;2022-07-29T08:20:36;25.60;66.70
30694;DHT22;17446;48.022;-1.740;2022-07-29T08:23:04;25.60;66.40
30694;DHT22;17446;48.022;-1.740;2022-07-29T08:25:32;25.70;66.10
30694;DHT22;17446;48.022;-1.740;2022-07-29T08:27:58;25.80;65.90
30694;DHT22;17446;48.022;-1.740;2022-07-29T08:30:24;25.90;65.80
30694;DHT22;17446;48.022;-1.740;2022-07-29T08:32:50;26.00;65.70
30694;DHT22;17446;48.022;-1.740;2022-07-29T08:35:18;26.20;65.00
30694;DHT22;17446;48.022;-1.740;2022-07-29T08:37:44;26.30;64.30
30694;DHT22;17446;48.022;-1.740;2022-07-29T08:40:11;26.30;64.10
30694;DHT22;17446;48.022;-1.740;2022-07-29T08:42:37;26.40;64.10
30694;DHT22;17446;48.022;-1.740;2022-07-29T08:45:04;26.40;63.40
30694;DHT22;17446;48.022;-1.740;2022-07-29T08:47:29;26.40;63.20
30694;DHT22;17446;48.022;-1.740;2022-07-29T08:49:55;26.40;63.60
30694;DHT22;17446;48.022;-1.740;2022-07-29T08:52:23;26.40;63.60
30694;DHT22;17446;48.022;-1.740;2022-07-29T08:54:51;26.30;63.60
30694;DHT22;17446;48.022;-1.740;2022-07-29T08:57:18;26.30;64.30
30694;DHT22;17446;48.022;-1.740;2022-07-29T08:59:46;26.30;63.70
30694;DHT22;17446;48.022;-1.740;2022-07-29T09:02:21;26.20;63.40
30694;DHT22;17446;48.022;-1.740;2022-07-29T09:04:47;26.20;63.60
30694;DHT22;17446;48.022;-1.740;2022-07-29T09:07:18;26.20;63.70
30694;DHT22;17446;48.022;-1.740;2022-07-29T09:09:44;26.10;63.70
30694;DHT22;17446;48.022;-1.740;2022-07-29T09:12:11;26.00;64.00
30694;DHT22;17446;48.022;-1.740;2022-07-29T09:14:38;25.90;64.50
30694;DHT22;17446;48.022;-1.740;2022-07-29T09:17:03;25.90;64.90
30694;DHT22;17446;48.022;-1.740;2022-07-29T09:19:31;25.90;64.90
30694;DHT22;17446;48.022;-1.740;2022-07-29T09:21:59;25.90;64.90
30694;DHT22;17446;48.022;-1.740;2022-07-29T09:24:46;25.90;65.00
30694;DHT22;17446;48.022;-1.740;2022-07-29T09:27:23;25.90;64.40
30694;DHT22;17446;48.022;-1.740;2022-07-29T09:30:05;26.00;64.50
30694;DHT22;17446;48.022;-1.740;2022-07-29T09:32:33;26.10;64.10
30694;DHT22;17446;48.022;-1.740;2022-07-29T09:35:20;26.20;63.90
30694;DHT22;17446;48.022;-1.740;2022-07-29T09:37:47;26.30;63.40
30694;DHT22;17446;48.022;-1.740;2022-07-29T09:42:41;26.70;64.20
30694;DHT22;17446;48.022;-1.740;2022-07-29T09:45:07;27.00;63.30
30694;DHT22;17446;48.022;-1.740;2022-07-29T09:47:44;27.30;63.20
30694;DHT22;17446;48.022;-1.740;2022-07-29T09:50:11;27.50;61.40
30694;DHT22;17446;48.022;-1.740;2022-07-29T09:52:51;27.60;60.70
30694;DHT22;17446;48.022;-1.740;2022-07-29T09:55:18;27.70;60.30
30694;DHT22;17446;48.022;-1.740;2022-07-29T09:57:44;27.90;60.50
30694;DHT22;17446;48.022;-1.740;2022-07-29T10:00:18;28.10;60.20
30694;DHT22;17446;48.022;-1.740;2022-07-29T10:02:45;28.30;60.20
30694;DHT22;17446;48.022;-1.740;2022-07-29T10:07:48;28.70;58.60
30694;DHT22;17446;48.022;-1.740;2022-07-29T10:10:23;28.70;58.40
30694;DHT22;17446;48.022;-1.740;2022-07-29T10:12:53;28.80;58.20
30694;DHT22;17446;48.022;-1.740;2022-07-29T10:15:21;28.80;58.20
30694;DHT22;17446;48.022;-1.740;2022-07-29T10:17:47;28.80;58.20
30694;DHT22;17446;48.022;-1.740;2022-07-29T10:20:14;28.80;58.30
30694;DHT22;17446;48.022;-1.740;2022-07-29T10:22:41;28.80;58.00
30694;DHT22;17446;48.022;-1.740;2022-07-29T10:25:08;28.90;58.20
30694;DHT22;17446;48.022;-1.740;2022-07-29T10:27:35;28.90;58.10
30694;DHT22;17446;48.022;-1.740;2022-07-29T10:30:02;29.00;58.30
30694;DHT22;17446;48.022;-1.740;2022-07-29T10:35:19;29.10;57.70
30694;DHT22;17446;48.022;-1.740;2022-07-29T10:38:21;29.10;58.10
30694;DHT22;17446;48.022;-1.740;2022-07-29T10:43:53;29.20;57.80
30694;DHT22;17446;48.022;-1.740;2022-07-29T10:46:20;29.00;57.50
30694;DHT22;17446;48.022;-1.740;2022-07-29T10:49:11;29.00;57.20
30694;DHT22;17446;48.022;-1.740;2022-07-29T10:52:03;28.90;57.50
30694;DHT22;17446;48.022;-1.740;2022-07-29T10:54:48;28.70;57.40
30694;DHT22;17446;48.022;-1.740;2022-07-29T10:57:28;28.70;58.10
30694;DHT22;17446;48.022;-1.740;2022-07-29T11:07:23;28.90;58.00
30694;DHT22;17446;48.022;-1.740;2022-07-29T11:15:51;28.80;57.90
30694;DHT22;17446;48.022;-1.740;2022-07-29T11:25:45;29.10;58.40
30694;DHT22;17446;48.022;-1.740;2022-07-29T11:28:17;29.10;57.80
30694;DHT22;17446;48.022;-1.740;2022-07-29T11:30:51;29.10;57.50
30694;DHT22;17446;48.022;-1.740;2022-07-29T11:33:28;29.00;57.40
30694;DHT22;17446;48.022;-1.740;2022-07-29T11:38:33;28.90;57.70
30694;DHT22;17446;48.022;-1.740;2022-07-29T11:46:13;29.10;57.80
30694;DHT22;17446;48.022;-1.740;2022-07-29T11:48:43;29.20;57.60
30694;DHT22;17446;48.022;-1.740;2022-07-29T11:51:10;29.30;57.20
30694;DHT22;17446;48.022;-1.740;2022-07-29T11:53:38;29.40;57.30
30694;DHT22;17446;48.022;-1.740;2022-07-29T11:56:04;29.50;57.50
30694;DHT22;17446;48.022;-1.740;2022-07-29T11:58:33;29.50;57.10
30694;DHT22;17446;48.022;-1.740;2022-07-29T12:01:00;29.60;57.10
30694;DHT22;17446;48.022;-1.740;2022-07-29T12:03:27;29.70;57.10
30694;DHT22;17446;48.022;-1.740;2022-07-29T12:05:53;29.80;56.60
30694;DHT22;17446;48.022;-1.740;2022-07-29T12:08:21;30.00;57.00
30694;DHT22;17446;48.022;-1.740;2022-07-29T12:10:49;30.20;57.00
30694;DHT22;17446;48.022;-1.740;2022-07-29T12:13:16;30.40;56.80
30694;DHT22;17446;48.022;-1.740;2022-07-29T12:15:54;30.50;56.00
30694;DHT22;17446;48.022;-1.740;2022-07-29T12:18:20;30.70;55.40
30694;DHT22;17446;48.022;-1.740;2022-07-29T12:20:47;30.90;55.10
30694;DHT22;17446;48.022;-1.740;2022-07-29T12:23:14;31.10;55.50
30694;DHT22;17446;48.022;-1.740;2022-07-29T12:25:41;31.20;54.90
30694;DHT22;17446;48.022;-1.740;2022-07-29T12:28:10;31.30;54.30
30694;DHT22;17446;48.022;-1.740;2022-07-29T12:30:42;31.40;54.30
30694;DHT22;17446;48.022;-1.740;2022-07-29T12:33:12;31.50;54.40
30694;DHT22;17446;48.022;-1.740;2022-07-29T12:35:38;31.60;54.10
30694;DHT22;17446;48.022;-1.740;2022-07-29T12:38:05;31.80;53.70
30694;DHT22;17446;48.022;-1.740;2022-07-29T12:40:31;31.80;53.90
30694;DHT22;17446;48.022;-1.740;2022-07-29T12:45:42;32.00;53.00
30694;DHT22;17446;48.022;-1.740;2022-07-29T12:48:08;32.00;53.00
30694;DHT22;17446;48.022;-1.740;2022-07-29T12:50:36;32.10;53.20
30694;DHT22;17446;48.022;-1.740;2022-07-29T12:53:10;32.10;53.10
30694;DHT22;17446;48.022;-1.740;2022-07-29T12:55:47;32.30;52.90
30694;DHT22;17446;48.022;-1.740;2022-07-29T12:58:35;32.50;51.50
30694;DHT22;17446;48.022;-1.740;2022-07-29T13:01:10;32.60;50.80
30694;DHT22;17446;48.022;-1.740;2022-07-29T13:03:58;32.60;50.90
30694;DHT22;17446;48.022;-1.740;2022-07-29T13:06:34;32.50;50.60
30694;DHT22;17446;48.022;-1.740;2022-07-29T13:14:13;31.90;51.20
30694;DHT22;17446;48.022;-1.740;2022-07-29T13:17:05;31.50;51.60
30694;DHT22;17446;48.022;-1.740;2022-07-29T13:19:49;31.10;52.70
30694;DHT22;17446;48.022;-1.740;2022-07-29T13:22:20;31.00;53.20
30694;DHT22;17446;48.022;-1.740;2022-07-29T13:24:51;31.00;53.70
30694;DHT22;17446;48.022;-1.740;2022-07-29T13:27:18;31.10;53.60
30694;DHT22;17446;48.022;-1.740;2022-07-29T13:29:44;31.20;53.60
30694;DHT22;17446;48.022;-1.740;2022-07-29T13:32:11;31.50;53.70
30694;DHT22;17446;48.022;-1.740;2022-07-29T13:34:37;31.80;53.00
30694;DHT22;17446;48.022;-1.740;2022-07-29T13:37:03;31.80;52.60
30694;DHT22;17446;48.022;-1.740;2022-07-29T13:39:28;31.80;52.70
30694;DHT22;17446;48.022;-1.740;2022-07-29T13:41:54;31.90;52.60
30694;DHT22;17446;48.022;-1.740;2022-07-29T13:44:20;32.00;52.30
30694;DHT22;17446;48.022;-1.740;2022-07-29T13:46:45;31.90;51.50
30694;DHT22;17446;48.022;-1.740;2022-07-29T13:49:11;31.90;52.00
30694;DHT22;17446;48.022;-1.740;2022-07-29T13:51:37;31.90;51.90
30694;DHT22;17446;48.022;-1.740;2022-07-29T13:54:03;31.80;52.20
30694;DHT22;17446;48.022;-1.740;2022-07-29T13:56:29;31.80;52.00
30694;DHT22;17446;48.022;-1.740;2022-07-29T13:58:55;31.80;51.60
30694;DHT22;17446;48.022;-1.740;2022-07-29T14:01:20;31.80;51.60
30694;DHT22;17446;48.022;-1.740;2022-07-29T14:03:46;31.60;51.20
30694;DHT22;17446;48.022;-1.740;2022-07-29T14:06:12;31.60;51.20
30694;DHT22;17446;48.022;-1.740;2022-07-29T14:08:38;31.70;51.60
30694;DHT22;17446;48.022;-1.740;2022-07-29T14:11:05;31.80;51.60
30694;DHT22;17446;48.022;-1.740;2022-07-29T14:13:31;31.90;51.70
30694;DHT22;17446;48.022;-1.740;2022-07-29T14:15:56;32.00;51.30
30694;DHT22;17446;48.022;-1.740;2022-07-29T14:18:22;32.30;51.70
30694;DHT22;17446;48.022;-1.740;2022-07-29T14:20:48;32.40;51.10
30694;DHT22;17446;48.022;-1.740;2022-07-29T14:23:13;32.50;51.00
30694;DHT22;17446;48.022;-1.740;2022-07-29T14:25:39;32.70;51.10
30694;DHT22;17446;48.022;-1.740;2022-07-29T14:28:05;32.70;51.10
30694;DHT22;17446;48.022;-1.740;2022-07-29T14:30:30;32.70;50.40
30694;DHT22;17446;48.022;-1.740;2022-07-29T14:32:56;32.60;50.20
30694;DHT22;17446;48.022;-1.740;2022-07-29T14:35:21;32.50;50.20
30694;DHT22;17446;48.022;-1.740;2022-07-29T14:37:47;32.40;50.50
30694;DHT22;17446;48.022;-1.740;2022-07-29T14:40:12;32.40;50.70
30694;DHT22;17446;48.022;-1.740;2022-07-29T14:42:38;32.30;50.70
30694;DHT22;17446;48.022;-1.740;2022-07-29T14:45:06;32.20;50.50
30694;DHT22;17446;48.022;-1.740;2022-07-29T14:47:32;32.20;50.40
30694;DHT22;17446;48.022;-1.740;2022-07-29T14:49:58;32.30;50.70
30694;DHT22;17446;48.022;-1.740;2022-07-29T14:52:24;32.30;50.60
30694;DHT22;17446;48.022;-1.740;2022-07-29T14:54:50;32.30;50.00
30694;DHT22;17446;48.022;-1.740;2022-07-29T14:57:15;32.30;49.70
30694;DHT22;17446;48.022;-1.740;2022-07-29T14:59:42;32.20;49.40
30694;DHT22;17446;48.022;-1.740;2022-07-29T15:02:08;32.10;50.00
30694;DHT22;17446;48.022;-1.740;2022-07-29T15:04:33;32.00;50.30
30694;DHT22;17446;48.022;-1.740;2022-07-29T15:06:59;32.00;50.10
30694;DHT22;17446;48.022;-1.740;2022-07-29T15:09:25;31.90;50.10
30694;DHT22;17446;48.022;-1.740;2022-07-29T15:11:51;31.80;50.20
30694;DHT22;17446;48.022;-1.740;2022-07-29T15:14:16;31.90;50.10
30694;DHT22;17446;48.022;-1.740;2022-07-29T15:16:42;31.80;49.60
30694;DHT22;17446;48.022;-1.740;2022-07-29T15:19:08;32.00;49.40
30694;DHT22;17446;48.022;-1.740;2022-07-29T15:21:35;32.30;49.80
30694;DHT22;17446;48.022;-1.740;2022-07-29T15:24:00;32.90;49.70
30694;DHT22;17446;48.022;-1.740;2022-07-29T15:26:26;33.50;48.90
30694;DHT22;17446;48.022;-1.740;2022-07-29T15:28:52;34.10;47.70
30694;DHT22;17446;48.022;-1.740;2022-07-29T15:31:17;34.30;46.80
30694;DHT22;17446;48.022;-1.740;2022-07-29T15:33:44;34.90;47.10
30694;DHT22;17446;48.022;-1.740;2022-07-29T15:36:10;35.30;46.30
30694;DHT22;17446;48.022;-1.740;2022-07-29T15:38:38;35.80;45.30
30694;DHT22;17446;48.022;-1.740;2022-07-29T15:41:06;35.50;44.80
30694;DHT22;17446;48.022;-1.740;2022-07-29T15:43:32;35.20;44.90
30694;DHT22;17446;48.022;-1.740;2022-07-29T15:45:57;34.90;45.40
30694;DHT22;17446;48.022;-1.740;2022-07-29T15:48:41;34.80;45.50
30694;DHT22;17446;48.022;-1.740;2022-07-29T15:51:07;34.80;45.80
30694;DHT22;17446;48.022;-1.740;2022-07-29T15:53:33;34.90;45.90
30694;DHT22;17446;48.022;-1.740;2022-07-29T15:55:58;35.20;45.20
30694;DHT22;17446;48.022;-1.740;2022-07-29T15:58:24;35.40;44.90
30694;DHT22;17446;48.022;-1.740;2022-07-29T16:00:49;35.50;44.70
30694;DHT22;17446;48.022;-1.740;2022-07-29T16:03:15;35.80;44.70
30694;DHT22;17446;48.022;-1.740;2022-07-29T16:05:41;36.00;44.30
30694;DHT22;17446;48.022;-1.740;2022-07-29T16:08:07;36.20;43.70
30694;DHT22;17446;48.022;-1.740;2022-07-29T16:10:33;36.40;43.60
30694;DHT22;17446;48.022;-1.740;2022-07-29T16:12:59;36.60;43.30
30694;DHT22;17446;48.022;-1.740;2022-07-29T16:15:24;36.70;43.00
30694;DHT22;17446;48.022;-1.740;2022-07-29T16:17:50;36.40;42.40
30694;DHT22;17446;48.022;-1.740;2022-07-29T16:20:16;36.10;42.70